Time;durP1;ratioP1;P1;durP2;ratioP2;P2;SDS_P1;SDS_P2;PMS_P1;PMS_P2;Temp;Humidity;BMP_temperature;BMP_pressure;BME280_temperature;BME280_humidity;BME280_pressure;Samples;Min_cycle;Max_cycle;Signal;HPM_P1;HPM_P2
2022/05/20 00:00:05;;;;;;;10.27;4.80;;;;;;;;;;4956330;28;20051;-83
2022/05/20 00:02:32;;;;;;;10.40;4.97;;;;;;;;;;4973495;28;20042;-83
2022/05/20 00:04:59;;;;;;;9.20;4.57;;;;;;;;;;4956005;28;20047;-83
2022/05/20 00:07:25;;;;;;;8.32;4.80;;;;;;;;;;4973603;28;20047;-83
2022/05/20 00:09:51;;;;;;;8.00;4.40;;;;;;;;;;4973323;28;20118;-83
2022/05/20 00:12:18;;;;;;;7.85;4.47;;;;;;;;;;4956016;28;20446;-84
2022/05/20 00:14:44;;;;;;;8.95;4.90;;;;;;;;;;4973261;28;20135;-83
2022/05/20 00:17:11;;;;;;;8.93;4.47;;;;;;;;;;4956396;28;20478;-83
2022/05/20 00:19:37;;;;;;;10.43;4.85;;;;;;;;;;4955793;28;20446;-83
2022/05/20 00:22:05;;;;;;;6.80;4.25;;;;;;;;;;4973645;28;20073;-84
2022/05/20 00:24:31;;;;;;;7.93;4.45;;;;;;;;;;4976425;28;20109;-83
2022/05/20 00:26:57;;;;;;;8.90;4.70;;;;;;;;;;4976997;28;20094;-83
2022/05/20 00:29:23;;;;;;;9.38;4.82;;;;;;;;;;4976656;28;20046;-83
2022/05/20 00:31:49;;;;;;;8.05;4.65;;;;;;;;;;4959836;28;20058;-83
2022/05/20 00:34:15;;;;;;;9.43;4.50;;;;;;;;;;4959037;28;20104;-83
2022/05/20 00:36:41;;;;;;;10.98;5.30;;;;;;;;;;4959598;28;20042;-83
2022/05/20 00:39:07;;;;;;;7.18;4.32;;;;;;;;;;4958853;28;20054;-83
2022/05/20 00:41:33;;;;;;;10.38;5.03;;;;;;;;;;4959470;28;20057;-83
2022/05/20 00:43:59;;;;;;;9.00;4.63;;;;;;;;;;4958961;28;20170;-82
2022/05/20 00:46:26;;;;;;;8.25;5.05;;;;;;;;;;4959345;28;20078;-83
2022/05/20 00:49:05;;;;;;;6.63;4.53;;;;;;;;;;4958761;28;20051;-83
2022/05/20 00:51:38;;;;;;;10.52;5.05;;;;;;;;;;4958989;28;20051;-83
2022/05/20 00:54:06;;;;;;;9.65;5.30;;;;;;;;;;4976395;28;20129;-83
2022/05/20 00:56:37;;;;;;;8.48;4.43;;;;;;;;;;4958921;28;20046;-83
2022/05/20 00:59:05;;;;;;;12.32;5.72;;;;;;;;;;4975973;28;20043;-83
2022/05/20 01:01:31;;;;;;;9.93;5.05;;;;;;;;;;4958882;28;20090;-83
2022/05/20 01:03:57;;;;;;;13.25;5.20;;;;;;;;;;4958856;28;20046;-83
2022/05/20 01:06:23;;;;;;;8.95;5.18;;;;;;;;;;4976155;28;20078;-83
2022/05/20 01:08:49;;;;;;;8.20;5.18;;;;;;;;;;4958644;28;20085;-81
2022/05/20 01:11:15;;;;;;;11.68;5.18;;;;;;;;;;4958700;28;20117;-82
2022/05/20 01:13:44;;;;;;;9.50;5.22;;;;;;;;;;4958760;28;20130;-83
2022/05/20 01:16:11;;;;;;;7.70;5.25;;;;;;;;;;4958472;28;20039;-82
2022/05/20 01:18:39;;;;;;;8.98;5.32;;;;;;;;;;4976054;28;20050;-83
2022/05/20 01:21:05;;;;;;;8.18;5.03;;;;;;;;;;4958420;28;20352;-83
2022/05/20 01:23:33;;;;;;;9.40;5.50;;;;;;;;;;4958476;28;20039;-83
2022/05/20 01:25:59;;;;;;;10.30;5.93;;;;;;;;;;4975728;28;20050;-83
2022/05/20 01:28:27;;;;;;;9.57;5.57;;;;;;;;;;4958385;28;20046;-83
2022/05/20 01:30:54;;;;;;;7.95;5.78;;;;;;;;;;4958012;28;20507;-83
2022/05/20 01:33:23;;;;;;;9.10;5.35;;;;;;;;;;4975071;28;20046;-83
2022/05/20 01:35:49;;;;;;;9.68;5.57;;;;;;;;;;4957901;28;20047;-83
2022/05/20 01:38:15;;;;;;;9.30;5.50;;;;;;;;;;4958447;28;20201;-82
2022/05/20 01:40:46;;;;;;;10.15;5.47;;;;;;;;;;4958052;28;20046;-82
2022/05/20 01:43:16;;;;;;;9.20;6.03;;;;;;;;;;4975488;28;20545;-83
2022/05/20 01:45:54;;;;;;;8.90;5.80;;;;;;;;;;4958021;28;20081;-83
2022/05/20 01:48:25;;;;;;;9.00;6.18;;;;;;;;;;4957995;28;20058;-83
2022/05/20 01:50:55;;;;;;;10.40;6.13;;;;;;;;;;4957834;28;20486;-82
2022/05/20 01:53:37;;;;;;;9.98;6.25;;;;;;;;;;4958448;28;20463;-82
2022/05/20 01:56:07;;;;;;;10.27;5.95;;;;;;;;;;4941797;28;20142;-83
2022/05/20 01:58:40;;;;;;;9.88;6.15;;;;;;;;;;4975366;28;20470;-83
2022/05/20 02:01:07;;;;;;;12.27;6.93;;;;;;;;;;4941571;28;20120;-83
2022/05/20 02:04:00;;;;;;;8.93;6.40;;;;;;;;;;4975039;28;20049;-83
2022/05/20 02:06:30;;;;;;;10.02;5.97;;;;;;;;;;4952383;28;20078;-83
2022/05/20 02:09:00;;;;;;;9.80;6.55;;;;;;;;;;4975153;28;20051;-83
2022/05/20 02:11:30;;;;;;;9.27;6.57;;;;;;;;;;4974691;28;20152;-83
2022/05/20 02:14:16;;;;;;;10.45;6.30;;;;;;;;;;4957580;28;20087;-82
2022/05/20 02:16:44;;;;;;;10.13;6.07;;;;;;;;;;4957357;28;20051;-82
2022/05/20 02:19:14;;;;;;;9.80;6.35;;;;;;;;;;4957549;28;20482;-82
2022/05/20 02:21:42;;;;;;;9.68;6.13;;;;;;;;;;4975042;28;20039;-83
2022/05/20 02:24:11;;;;;;;9.93;6.80;;;;;;;;;;4957638;28;20482;-82
2022/05/20 02:26:50;;;;;;;11.55;6.70;;;;;;;;;;4957452;28;20051;-83
2022/05/20 02:29:18;;;;;;;10.50;6.88;;;;;;;;;;4941455;28;20074;-82
2022/05/20 02:31:48;;;;;;;10.88;6.50;;;;;;;;;;4957221;28;20047;-82
2022/05/20 02:34:14;;;;;;;11.60;6.38;;;;;;;;;;4957236;28;20138;-82
2022/05/20 02:36:40;;;;;;;11.20;6.55;;;;;;;;;;4974499;28;20483;-83
2022/05/20 02:39:14;;;;;;;8.90;5.97;;;;;;;;;;4974470;28;20446;-83
2022/05/20 02:41:41;;;;;;;11.23;7.03;;;;;;;;;;4974453;28;20047;-83
2022/05/20 02:44:07;;;;;;;13.70;6.97;;;;;;;;;;4974447;28;20050;-82
2022/05/20 02:46:32;;;;;;;9.05;7.22;;;;;;;;;;4973672;28;20042;-82
2022/05/20 02:48:58;;;;;;;10.95;7.55;;;;;;;;;;4974519;28;20205;-83
2022/05/20 02:51:24;;;;;;;10.27;6.68;;;;;;;;;;4974338;28;20542;-83
2022/05/20 02:53:50;;;;;;;12.30;7.22;;;;;;;;;;4957295;28;20055;-83
2022/05/20 02:56:16;;;;;;;12.63;8.15;;;;;;;;;;4956716;28;20097;-83
2022/05/20 03:04:26;;;;;;;11.10;8.00;;;;;;;;;;4941480;28;20047;-82
2022/05/20 03:06:54;;;;;;;12.95;8.23;;;;;;;;;;4956682;28;20046;-82
2022/05/20 03:09:23;;;;;;;12.43;7.68;;;;;;;;;;4940638;28;20043;-83
2022/05/20 03:11:49;;;;;;;12.27;8.35;;;;;;;;;;4973832;28;20055;-83
2022/05/20 03:14:18;;;;;;;14.52;7.57;;;;;;;;;;4956781;28;20047;-83
2022/05/20 03:16:44;;;;;;;11.95;7.28;;;;;;;;;;4956537;28;20043;-82
2022/05/20 03:19:11;;;;;;;13.82;7.60;;;;;;;;;;4956860;28;20039;-82
2022/05/20 03:21:37;;;;;;;10.85;6.88;;;;;;;;;;4956332;28;20074;-82
2022/05/20 03:24:07;;;;;;;10.05;7.07;;;;;;;;;;4956539;28;20122;-83
2022/05/20 03:26:33;;;;;;;11.20;7.47;;;;;;;;;;4956421;28;20089;-83
2022/05/20 03:29:02;;;;;;;10.70;7.68;;;;;;;;;;4973799;28;20043;-82
2022/05/20 03:31:28;;;;;;;11.02;6.97;;;;;;;;;;4973673;28;20432;-83
2022/05/20 03:33:54;;;;;;;11.57;7.32;;;;;;;;;;4973789;28;20122;-83
2022/05/20 03:36:21;;;;;;;9.60;7.05;;;;;;;;;;4956201;28;20043;-83
2022/05/20 03:38:47;;;;;;;10.68;7.13;;;;;;;;;;4956389;28;20054;-83
2022/05/20 03:41:13;;;;;;;12.57;7.28;;;;;;;;;;4956544;28;20046;-83
2022/05/20 03:43:40;;;;;;;11.07;7.45;;;;;;;;;;4973711;28;20497;-83
2022/05/20 03:46:06;;;;;;;9.80;7.15;;;;;;;;;;4956252;28;20050;-83
2022/05/20 03:48:32;;;;;;;11.20;6.72;;;;;;;;;;4956360;28;20042;-83
2022/05/20 03:51:07;;;;;;;9.80;6.93;;;;;;;;;;4956182;28;20109;-82
2022/05/20 03:53:33;;;;;;;9.30;6.22;;;;;;;;;;4956666;28;20055;-83
2022/05/20 03:55:59;;;;;;;8.63;5.72;;;;;;;;;;4973576;28;20043;-82
2022/05/20 03:58:25;;;;;;;10.07;5.57;;;;;;;;;;4959827;28;20043;-82
2022/05/20 04:03:40;;;;;;;8.73;5.20;;;;;;;;;;4977461;28;20042;-83
2022/05/20 04:06:06;;;;;;;10.43;5.85;;;;;;;;;;4977254;28;20053;-83
2022/05/20 04:08:32;;;;;;;8.73;5.90;;;;;;;;;;4977224;28;20050;-83
2022/05/20 04:10:58;;;;;;;8.60;5.72;;;;;;;;;;4959380;28;20063;-83
2022/05/20 04:13:23;;;;;;;9.52;6.18;;;;;;;;;;4977088;28;20047;-82
2022/05/20 04:15:50;;;;;;;9.52;6.43;;;;;;;;;;4976671;28;20072;-82
2022/05/20 04:18:16;;;;;;;9.73;6.68;;;;;;;;;;4959803;28;20390;-82
2022/05/20 04:20:42;;;;;;;7.53;5.60;;;;;;;;;;4959370;28;20046;-83
2022/05/20 04:23:08;;;;;;;8.30;4.80;;;;;;;;;;4959495;28;20059;-82
2022/05/20 04:25:34;;;;;;;7.10;4.95;;;;;;;;;;4976877;28;20050;-82
2022/05/20 04:28:00;;;;;;;9.38;5.57;;;;;;;;;;4959192;28;20430;-83
2022/05/20 04:30:26;;;;;;;10.27;5.40;;;;;;;;;;4959326;28;20055;-82
2022/05/20 04:32:51;;;;;;;10.07;5.32;;;;;;;;;;4959190;28;20093;-82
2022/05/20 04:35:17;;;;;;;10.65;6.25;;;;;;;;;;4959201;28;20047;-83
2022/05/20 04:37:43;;;;;;;7.93;5.72;;;;;;;;;;4959002;28;20046;-82
2022/05/20 04:40:10;;;;;;;9.32;6.53;;;;;;;;;;4959245;28;20121;-83
2022/05/20 04:48:06;;;;;;;11.15;7.65;;;;;;;;;;4958780;28;20051;-83
2022/05/20 04:50:32;;;;;;;9.70;7.72;;;;;;;;;;4976359;28;20138;-83
2022/05/20 04:52:58;;;;;;;11.35;8.55;;;;;;;;;;4976121;28;20047;-83
2022/05/20 04:55:24;;;;;;;12.55;8.15;;;;;;;;;;4958792;28;20051;-83
2022/05/20 04:57:52;;;;;;;10.32;7.50;;;;;;;;;;4976214;28;20035;-82
2022/05/20 05:00:26;;;;;;;10.20;7.85;;;;;;;;;;4976400;28;20077;-82
2022/05/20 05:02:52;;;;;;;11.13;8.07;;;;;;;;;;4959146;28;20498;-82
2022/05/20 05:05:20;;;;;;;12.38;8.10;;;;;;;;;;4958892;28;20043;-82
2022/05/20 05:07:47;;;;;;;12.20;8.10;;;;;;;;;;4958502;28;20058;-83
2022/05/20 05:10:14;;;;;;;12.30;9.10;;;;;;;;;;4975320;28;20038;-83
2022/05/20 05:12:40;;;;;;;10.35;8.40;;;;;;;;;;4976114;28;20047;-82
2022/05/20 05:15:06;;;;;;;13.00;8.48;;;;;;;;;;4958563;28;20053;-82
2022/05/20 05:20:20;;;;;;;13.63;9.18;;;;;;;;;;4975755;28;20042;-83
2022/05/20 05:22:46;;;;;;;12.63;9.57;;;;;;;;;;4958153;28;20498;-83
2022/05/20 05:25:13;;;;;;;13.15;9.98;;;;;;;;;;4958708;28;20038;-83
2022/05/20 05:27:40;;;;;;;13.27;10.27;;;;;;;;;;4958197;28;20426;-83
2022/05/20 05:30:07;;;;;;;14.32;10.05;;;;;;;;;;4975751;28;20050;-83
2022/05/20 05:32:34;;;;;;;17.27;10.95;;;;;;;;;;4958163;28;20051;-83
2022/05/20 05:35:01;;;;;;;14.55;11.00;;;;;;;;;;4957987;28;20485;-83
2022/05/20 05:37:27;;;;;;;16.35;11.65;;;;;;;;;;4958078;28;20047;-83
2022/05/20 05:39:53;;;;;;;14.88;11.75;;;;;;;;;;4958213;28;20478;-82
2022/05/20 05:42:20;;;;;;;14.73;11.25;;;;;;;;;;4957978;28;20047;-83
2022/05/20 05:44:46;;;;;;;15.00;11.20;;;;;;;;;;4975493;28;20058;-82
2022/05/20 05:47:12;;;;;;;18.38;11.93;;;;;;;;;;4957883;28;20042;-82
2022/05/20 05:49:38;;;;;;;14.80;11.50;;;;;;;;;;4958044;28;20057;-82
2022/05/20 05:52:04;;;;;;;17.35;11.30;;;;;;;;;;4975277;28;20082;-82
2022/05/20 05:54:32;;;;;;;17.98;12.30;;;;;;;;;;4957673;28;20042;-82
2022/05/20 05:56:59;;;;;;;14.70;10.77;;;;;;;;;;4957868;28;20043;-83
2022/05/20 05:59:25;;;;;;;14.57;10.63;;;;;;;;;;4941643;28;20043;-82
2022/05/20 06:01:56;;;;;;;17.23;10.77;;;;;;;;;;4957885;28;20035;-82
2022/05/20 06:04:22;;;;;;;15.82;11.55;;;;;;;;;;4975155;28;20513;-82
2022/05/20 06:06:48;;;;;;;17.02;11.00;;;;;;;;;;4957719;28;20051;-81
2022/05/20 06:09:14;;;;;;;16.60;11.23;;;;;;;;;;4957506;28;20486;-82
2022/05/20 06:11:40;;;;;;;16.10;10.88;;;;;;;;;;4957440;28;20410;-82
2022/05/20 06:14:07;;;;;;;14.95;10.35;;;;;;;;;;4974759;28;20401;-82
2022/05/20 06:16:33;;;;;;;17.38;10.23;;;;;;;;;;4957307;28;20042;-82
2022/05/20 06:18:59;;;;;;;16.35;9.65;;;;;;;;;;4974484;28;20486;-82
2022/05/20 06:21:26;;;;;;;14.23;9.38;;;;;;;;;;4957546;28;20465;-82
2022/05/20 06:23:52;;;;;;;14.93;10.15;;;;;;;;;;4960674;28;20057;-83
2022/05/20 06:26:18;;;;;;;16.98;8.85;;;;;;;;;;4973337;28;20061;-84
2022/05/20 06:28:45;;;;;;;12.60;7.93;;;;;;;;;;4973070;28;20066;-84
2022/05/20 06:31:11;;;;;;;12.15;5.15;;;;;;;;;;4973274;28;20399;-83
2022/05/20 06:33:38;;;;;;;11.15;5.20;;;;;;;;;;4972880;28;20552;-83
2022/05/20 06:41:33;;;;;;;11.02;7.57;;;;;;;;;;4972757;28;20047;-83
2022/05/20 06:43:59;;;;;;;11.40;8.13;;;;;;;;;;4973921;28;20105;-83
2022/05/20 06:46:26;;;;;;;13.40;8.10;;;;;;;;;;4972690;28;20085;-83
2022/05/20 06:48:53;;;;;;;11.13;6.50;;;;;;;;;;4972358;28;20047;-84
2022/05/20 06:51:21;;;;;;;10.23;7.05;;;;;;;;;;4973777;28;20051;-83
2022/05/20 06:53:47;;;;;;;12.27;7.97;;;;;;;;;;4972586;28;20073;-83
2022/05/20 06:56:15;;;;;;;12.15;6.90;;;;;;;;;;4972471;28;20054;-83
2022/05/20 06:58:41;;;;;;;10.82;6.43;;;;;;;;;;4972539;28;20090;-84
2022/05/20 07:01:07;;;;;;;14.65;6.90;;;;;;;;;;4973867;28;20169;-83
2022/05/20 07:03:34;;;;;;;14.32;7.20;;;;;;;;;;4956387;28;20120;-84
2022/05/20 07:06:01;;;;;;;10.23;6.78;;;;;;;;;;4972374;28;20039;-83
2022/05/20 07:08:27;;;;;;;10.93;6.70;;;;;;;;;;4972309;28;20134;-83
2022/05/20 07:10:52;;;;;;;10.50;6.10;;;;;;;;;;4972198;28;20477;-83
2022/05/20 07:13:19;;;;;;;11.00;4.53;;;;;;;;;;4972195;28;20054;-85
2022/05/20 07:15:44;;;;;;;11.52;5.68;;;;;;;;;;4972136;28;20050;-84
2022/05/20 07:18:10;;;;;;;13.40;6.45;;;;;;;;;;4955983;28;20118;-83
2022/05/20 07:20:37;;;;;;;11.20;5.88;;;;;;;;;;4972514;28;20050;-84
2022/05/20 07:23:03;;;;;;;12.13;6.32;;;;;;;;;;4972367;28;20060;-85
2022/05/20 07:25:29;;;;;;;10.13;5.53;;;;;;;;;;4973747;28;20046;-82
2022/05/20 07:27:59;;;;;;;12.15;6.22;;;;;;;;;;4973257;28;20051;-84
2022/05/20 07:30:25;;;;;;;13.90;6.72;;;;;;;;;;4972288;28;20055;-84
2022/05/20 07:32:51;;;;;;;13.27;6.75;;;;;;;;;;4974867;28;20049;-84
2022/05/20 07:35:18;;;;;;;12.05;6.38;;;;;;;;;;4968396;28;20043;-83
2022/05/20 07:37:44;;;;;;;10.80;6.07;;;;;;;;;;4960207;28;20046;-83
2022/05/20 07:40:10;;;;;;;12.48;6.35;;;;;;;;;;4960299;28;20054;-84
2022/05/20 07:42:36;;;;;;;12.38;5.97;;;;;;;;;;4960368;28;20498;-84
2022/05/20 07:45:02;;;;;;;12.40;6.22;;;;;;;;;;4977544;28;20125;-83
2022/05/20 07:47:28;;;;;;;11.57;5.82;;;;;;;;;;4977481;28;20455;-83
2022/05/20 07:49:54;;;;;;;10.55;5.32;;;;;;;;;;4992574;28;20049;-83
2022/05/20 07:55:06;;;;;;;9.30;5.40;;;;;;;;;;4977195;28;20051;-84
2022/05/20 07:57:33;;;;;;;10.68;5.60;;;;;;;;;;4960107;28;20112;-83
2022/05/20 07:59:59;;;;;;;9.75;5.45;;;;;;;;;;4959786;28;20050;-83
2022/05/20 08:02:27;;;;;;;10.73;4.88;;;;;;;;;;4960407;28;20418;-85
2022/05/20 08:04:56;;;;;;;9.85;5.40;;;;;;;;;;4959958;28;20065;-84
2022/05/20 08:07:25;;;;;;;9.65;5.43;;;;;;;;;;4992628;28;20046;-83
2022/05/20 08:09:51;;;;;;;9.60;4.78;;;;;;;;;;4959927;28;20038;-93
2022/05/20 08:12:17;;;;;;;10.43;5.07;;;;;;;;;;4960018;28;20054;-82
2022/05/20 08:14:43;;;;;;;9.93;5.10;;;;;;;;;;4977010;28;20047;-83
2022/05/20 08:17:09;;;;;;;10.65;4.95;;;;;;;;;;4977332;28;20474;-83
2022/05/20 08:19:35;;;;;;;7.18;4.60;;;;;;;;;;4959245;28;20047;-84
2022/05/20 08:22:01;;;;;;;11.48;4.47;;;;;;;;;;4958717;28;20045;-83
2022/05/20 08:24:27;;;;;;;9.15;3.78;;;;;;;;;;4959643;28;20146;-83
2022/05/20 08:26:53;;;;;;;9.98;2.85;;;;;;;;;;4976918;28;20505;-84
2022/05/20 08:29:20;;;;;;;8.50;2.80;;;;;;;;;;4975499;28;20047;-85
2022/05/20 08:31:46;;;;;;;8.43;2.90;;;;;;;;;;4959546;28;20094;-85
2022/05/20 08:34:13;;;;;;;7.78;2.65;;;;;;;;;;4958208;28;20058;-84
2022/05/20 08:36:39;;;;;;;8.85;3.88;;;;;;;;;;4959249;28;20490;-84
2022/05/20 08:39:05;;;;;;;7.00;2.75;;;;;;;;;;4991695;28;20089;-90
2022/05/20 08:41:41;;;;;;;8.35;2.78;;;;;;;;;;4959259;28;20122;-85
2022/05/20 08:44:08;;;;;;;;;;;;;;;;;;4958480;28;20089;-85
2022/05/20 08:46:34;;;;;;;8.05;3.42;;;;;;;;;;4959342;28;19925;-84
2022/05/20 08:49:00;;;;;;;8.98;4.40;;;;;;;;;;4958864;28;20398;-83
2022/05/20 08:51:30;;;;;;;8.23;4.82;;;;;;;;;;4958060;28;20058;-83
2022/05/20 08:53:56;;;;;;;9.38;4.30;;;;;;;;;;4991118;28;20054;-84
2022/05/20 08:56:24;;;;;;;8.23;3.83;;;;;;;;;;4942907;28;20081;-84
2022/05/20 08:58:54;;;;;;;8.57;3.90;;;;;;;;;;4958747;28;20047;-84
2022/05/20 09:01:27;;;;;;;8.65;3.95;;;;;;;;;;4958747;28;20043;-84
2022/05/20 09:03:53;;;;;;;11.30;4.07;;;;;;;;;;4974304;28;20038;-83
2022/05/20 09:06:20;;;;;;;6.25;3.03;;;;;;;;;;4958791;28;20121;-84
2022/05/20 09:09:00;;;;;;;12.98;4.80;;;;;;;;;;4958449;28;20045;-84
2022/05/20 09:11:29;;;;;;;8.73;3.78;;;;;;;;;;4958590;28;20058;-83
2022/05/20 09:16:57;;;;;;;9.48;3.50;;;;;;;;;;4958524;28;20130;-84
2022/05/20 09:19:28;;;;;;;8.93;3.63;;;;;;;;;;4958470;28;20049;-84
2022/05/20 09:22:05;;;;;;;6.53;2.85;;;;;;;;;;4958797;28;20047;-83
2022/05/20 09:24:39;;;;;;;8.82;3.35;;;;;;;;;;4958328;28;20039;-84
2022/05/20 09:27:18;;;;;;;7.32;3.55;;;;;;;;;;4958378;28;20046;-83
2022/05/20 09:29:53;;;;;;;6.97;3.20;;;;;;;;;;4974235;28;20062;-83
2022/05/20 09:32:19;;;;;;;;;;;;;;;;;;4958930;28;20051;-84
2022/05/20 09:34:45;;;;;;;;;;;;;;;;;;4958656;28;19922;-83
2022/05/20 09:37:16;;;;;;;8.20;3.88;;;;;;;;;;4975828;28;20443;-83
2022/05/20 09:39:44;;;;;;;9.88;4.15;;;;;;;;;;4958204;28;20055;-84
2022/05/20 09:42:13;;;;;;;7.18;3.97;;;;;;;;;;4974264;28;20057;-84
2022/05/20 09:44:40;;;;;;;7.93;4.55;;;;;;;;;;4974012;28;20047;-83
2022/05/20 09:47:18;;;;;;;10.98;4.43;;;;;;;;;;4990342;28;20093;-84
2022/05/20 09:49:53;;;;;;;8.73;3.67;;;;;;;;;;4957988;28;20117;-83
2022/05/20 09:52:54;;;;;;;8.70;4.17;;;;;;;;;;4958224;28;20058;-84
2022/05/20 09:55:36;;;;;;;7.57;4.40;;;;;;;;;;4879446;29;20128;-84
2022/05/20 09:58:27;;;;;;;11.15;4.63;;;;;;;;;;4967975;28;20074;-83
2022/05/20 10:01:14;;;;;;;9.57;4.93;;;;;;;;;;4957730;28;20493;-83
2022/05/20 10:03:45;;;;;;;9.93;4.82;;;;;;;;;;4975232;28;20170;-82
2022/05/20 10:06:29;;;;;;;8.07;4.30;;;;;;;;;;4957436;28;20050;-83
2022/05/20 10:09:09;;;;;;;8.55;4.35;;;;;;;;;;4957541;28;20050;-84
2022/05/20 10:11:45;;;;;;;7.75;3.88;;;;;;;;;;4974811;28;20087;-86
2022/05/20 10:14:11;;;;;;;8.70;4.47;;;;;;;;;;4989829;28;20081;-83
2022/05/20 10:16:50;;;;;;;7.70;3.45;;;;;;;;;;4957382;28;20054;-83
2022/05/20 10:19:27;;;;;;;7.15;3.78;;;;;;;;;;4957127;28;20042;-83
2022/05/20 10:21:56;;;;;;;6.88;3.42;;;;;;;;;;4975092;28;20038;-83
2022/05/20 10:24:38;;;;;;;10.85;4.57;;;;;;;;;;4974640;28;20112;-82
2022/05/20 10:27:12;;;;;;;8.45;3.60;;;;;;;;;;4975050;28;20053;-83
2022/05/20 10:32:40;;;;;;;8.45;5.10;;;;;;;;;;4974861;28;20043;-83
2022/05/20 10:35:18;;;;;;;8.75;5.53;;;;;;;;;;4974427;28;20122;-79
2022/05/20 10:38:03;;;;;;;9.60;4.10;;;;;;;;;;4957273;28;20490;-82
2022/05/20 10:40:37;;;;;;;8.27;4.93;;;;;;;;;;4974430;28;20062;-82
2022/05/20 10:43:21;;;;;;;10.85;5.30;;;;;;;;;;4957073;28;20047;-82
2022/05/20 10:48:58;;;;;;;7.65;5.32;;;;;;;;;;4974567;28;20121;-82
2022/05/20 10:51:24;;;;;;;9.02;6.40;;;;;;;;;;4972914;28;20050;-82
2022/05/20 10:54:06;;;;;;;10.30;5.97;;;;;;;;;;4973185;28;20047;-82
2022/05/20 10:56:47;;;;;;;10.13;6.72;;;;;;;;;;4956755;28;20046;-83
2022/05/20 10:59:21;;;;;;;11.30;6.63;;;;;;;;;;4973043;28;20508;-81
2022/05/20 11:01:54;;;;;;;8.73;6.97;;;;;;;;;;4956678;28;20039;-81
2022/05/20 11:04:29;;;;;;;9.30;6.63;;;;;;;;;;4956833;28;20045;-82
2022/05/20 11:07:00;;;;;;;10.88;6.30;;;;;;;;;;4973498;28;20042;-82
2022/05/20 11:09:35;;;;;;;6.25;3.70;;;;;;;;;;4956955;28;20485;-82
2022/05/20 11:12:02;;;;;;;9.47;5.23;;;;;;;;;;4956406;28;20063;-81
2022/05/20 11:14:54;;;;;;;7.55;5.47;;;;;;;;;;4973988;28;20051;-81
2022/05/20 11:17:37;;;;;;;9.05;5.13;;;;;;;;;;4957021;28;20069;-82
2022/05/20 11:20:06;;;;;;;7.47;5.30;;;;;;;;;;4956494;28;20456;-82
2022/05/20 11:22:51;;;;;;;9.60;5.47;;;;;;;;;;4974249;28;20097;-82
2022/05/20 11:25:32;;;;;;;10.25;5.60;;;;;;;;;;4972569;28;20359;-82
2022/05/20 11:28:11;;;;;;;7.50;5.03;;;;;;;;;;4956569;28;20570;-82
2022/05/20 11:30:48;;;;;;;11.30;5.25;;;;;;;;;;4956648;28;20426;-82
2022/05/20 11:33:25;;;;;;;9.15;6.55;;;;;;;;;;4940550;28;20222;-82
2022/05/20 11:35:59;;;;;;;8.90;4.47;;;;;;;;;;4956202;28;20097;-82
2022/05/20 11:38:44;;;;;;;7.32;3.88;;;;;;;;;;4974017;28;20043;-82
2022/05/20 11:41:13;;;;;;;7.10;4.07;;;;;;;;;;4956762;28;20054;-82
2022/05/20 11:43:45;;;;;;;7.15;3.58;;;;;;;;;;4956550;28;20125;-82
2022/05/20 11:46:25;;;;;;;7.85;4.10;;;;;;;;;;4973814;28;20446;-85
2022/05/20 11:48:56;;;;;;;7.75;4.30;;;;;;;;;;4973713;28;20049;-82
2022/05/20 11:51:29;;;;;;;6.43;3.40;;;;;;;;;;4956342;28;20038;-82
2022/05/20 11:54:18;;;;;;;6.95;3.45;;;;;;;;;;4956611;28;20058;-81
2022/05/20 11:56:54;;;;;;;6.80;3.72;;;;;;;;;;4973678;28;20093;-82
2022/05/20 11:59:23;;;;;;;8.68;5.20;;;;;;;;;;4972763;28;20063;-81
2022/05/20 12:01:52;;;;;;;8.23;5.05;;;;;;;;;;4956335;28;20043;-82
2022/05/20 12:04:20;;;;;;;10.02;6.50;;;;;;;;;;4973668;28;20039;-81
2022/05/20 12:06:49;;;;;;;8.52;5.95;;;;;;;;;;4955962;28;20133;-81
2022/05/20 12:09:32;;;;;;;7.32;5.85;;;;;;;;;;4956481;28;20391;-80
2022/05/20 12:12:11;;;;;;;10.23;8.00;;;;;;;;;;4973425;28;20074;-79
2022/05/20 12:14:56;;;;;;;11.82;8.60;;;;;;;;;;4973368;28;20517;-81
2022/05/20 12:17:29;;;;;;;10.35;7.55;;;;;;;;;;4956014;28;20514;-81
2022/05/20 12:25:45;;;;;;;7.13;4.88;;;;;;;;;;4975850;28;20070;-82
2022/05/20 12:28:23;;;;;;;9.32;5.65;;;;;;;;;;4959461;28;20047;-82
2022/05/20 12:31:08;;;;;;;9.40;6.10;;;;;;;;;;4959300;28;20042;-82
2022/05/20 12:33:49;;;;;;;15.70;5.50;;;;;;;;;;4976950;28;20035;-82
2022/05/20 12:36:15;;;;;;;10.60;5.20;;;;;;;;;;4959235;28;20490;-81
2022/05/20 12:38:42;;;;;;;9.57;6.05;;;;;;;;;;4959324;28;20085;-82
2022/05/20 12:41:27;;;;;;;10.52;7.18;;;;;;;;;;4959124;28;20039;-83
2022/05/20 12:43:54;;;;;;;11.25;6.50;;;;;;;;;;4959512;28;20066;-81
2022/05/20 12:46:23;;;;;;;13.73;7.50;;;;;;;;;;4959026;28;20042;-84
2022/05/20 12:48:55;;;;;;;8.77;6.88;;;;;;;;;;4959374;28;20376;-82
2022/05/20 12:51:21;;;;;;;9.50;7.18;;;;;;;;;;4959056;28;20046;-82
2022/05/20 12:53:47;;;;;;;9.32;7.75;;;;;;;;;;4959374;28;20097;-83
2022/05/20 12:56:27;;;;;;;11.93;7.75;;;;;;;;;;4958827;28;20051;-82
2022/05/20 12:58:53;;;;;;;10.32;6.85;;;;;;;;;;4959287;28;20129;-82
2022/05/20 13:01:19;;;;;;;9.10;6.80;;;;;;;;;;4942797;28;20046;-82
2022/05/20 13:03:46;;;;;;;7.00;5.78;;;;;;;;;;4959237;28;20043;-81
2022/05/20 13:06:15;;;;;;;6.75;4.15;;;;;;;;;;4975114;28;20074;-80
2022/05/20 13:08:52;;;;;;;7.75;4.30;;;;;;;;;;4959147;28;20050;-82
2022/05/20 13:11:20;;;;;;;7.13;4.28;;;;;;;;;;4975814;28;20055;-82
2022/05/20 13:13:49;;;;;;;7.45;4.93;;;;;;;;;;4958714;28;20059;-81
2022/05/20 13:16:16;;;;;;;8.82;5.07;;;;;;;;;;4976054;28;20050;-82
2022/05/20 13:18:43;;;;;;;7.57;4.70;;;;;;;;;;4958538;28;20101;-81
2022/05/20 13:21:21;;;;;;;7.80;4.88;;;;;;;;;;4958661;28;20035;-82
2022/05/20 13:23:53;;;;;;;6.05;4.13;;;;;;;;;;4975853;28;20043;-82
2022/05/20 13:26:27;;;;;;;6.38;3.88;;;;;;;;;;4975783;28;20046;-82
2022/05/20 13:28:53;;;;;;;9.18;4.43;;;;;;;;;;4958498;28;20039;-82
2022/05/20 13:31:21;;;;;;;7.18;4.22;;;;;;;;;;4957651;28;20453;-82
2022/05/20 13:33:47;;;;;;;6.47;3.65;;;;;;;;;;4958423;28;20047;-81
2022/05/20 13:36:17;;;;;;;6.22;4.03;;;;;;;;;;4957961;28;20051;-81
2022/05/20 13:38:44;;;;;;;8.43;3.67;;;;;;;;;;4958469;28;20376;-81
2022/05/20 13:41:10;;;;;;;7.43;3.88;;;;;;;;;;4958079;28;20074;-82
2022/05/20 13:43:38;;;;;;;6.78;3.50;;;;;;;;;;4957782;28;20059;-81
2022/05/20 13:49:13;;;;;;;7.40;3.38;;;;;;;;;;4975133;28;20055;-81
2022/05/20 13:51:42;;;;;;;7.00;4.03;;;;;;;;;;4975424;28;20042;-80
2022/05/20 13:54:10;;;;;;;6.35;3.25;;;;;;;;;;4958222;28;20043;-81
2022/05/20 13:56:41;;;;;;;6.97;3.13;;;;;;;;;;4974083;28;20054;-81
2022/05/20 13:59:19;;;;;;;5.80;3.03;;;;;;;;;;4957912;28;20054;-81
2022/05/20 14:01:50;;;;;;;7.70;3.58;;;;;;;;;;4954973;28;20043;-81
2022/05/20 14:04:16;;;;;;;12.73;4.35;;;;;;;;;;4958119;28;20158;-81
2022/05/20 14:06:42;;;;;;;12.60;5.03;;;;;;;;;;4973790;28;20510;-81
2022/05/20 14:09:10;;;;;;;8.90;5.00;;;;;;;;;;4957694;28;20444;-81
2022/05/20 14:11:40;;;;;;;13.75;5.35;;;;;;;;;;4941157;28;20498;-81
2022/05/20 14:14:13;;;;;;;9.40;5.50;;;;;;;;;;4957383;28;20039;-81
2022/05/20 14:16:41;;;;;;;9.63;5.82;;;;;;;;;;4974511;28;20038;-81
2022/05/20 14:19:30;;;;;;;9.63;5.80;;;;;;;;;;4953946;28;20189;-81
2022/05/20 14:22:01;;;;;;;11.40;6.20;;;;;;;;;;4958692;28;20153;-81
2022/05/20 14:24:31;;;;;;;12.05;7.03;;;;;;;;;;4971622;28;20150;-82
2022/05/20 14:26:57;;;;;;;10.85;7.10;;;;;;;;;;4944111;28;20490;-82
2022/05/20 14:32:05;;;;;;;13.00;6.75;;;;;;;;;;4935363;29;20056;-81
2022/05/20 14:34:41;;;;;;;9.15;5.90;;;;;;;;;;4935420;29;20513;-79
2022/05/20 14:37:11;;;;;;;10.45;6.28;;;;;;;;;;4948310;28;20051;-81
2022/05/20 14:39:40;;;;;;;12.02;7.95;;;;;;;;;;4957064;28;20047;-82
2022/05/20 14:42:08;;;;;;;14.65;9.57;;;;;;;;;;4936127;29;20051;-83
2022/05/20 14:44:34;;;;;;;14.20;9.88;;;;;;;;;;4953886;29;20039;-83
2022/05/20 14:47:14;;;;;;;15.55;9.60;;;;;;;;;;4952917;29;20043;-83
2022/05/20 14:49:47;;;;;;;14.48;9.25;;;;;;;;;;4937747;28;20050;-83
2022/05/20 14:52:22;;;;;;;14.57;9.07;;;;;;;;;;4952652;29;20222;-83
2022/05/20 14:54:48;;;;;;;16.05;8.98;;;;;;;;;;4954029;29;20124;-83
2022/05/20 14:57:15;;;;;;;12.65;8.75;;;;;;;;;;4919369;29;20385;-83
2022/05/20 14:59:41;;;;;;;15.30;9.63;;;;;;;;;;4906031;28;20050;-83
2022/05/20 15:02:07;;;;;;;13.68;8.10;;;;;;;;;;4953500;29;20047;-83
2022/05/20 15:04:33;;;;;;;13.93;8.77;;;;;;;;;;4953663;29;20047;-83
2022/05/20 15:07:01;;;;;;;12.23;8.38;;;;;;;;;;4953674;29;20147;-83
2022/05/20 15:09:35;;;;;;;14.07;9.38;;;;;;;;;;4954611;29;20053;-83
2022/05/20 15:12:04;;;;;;;16.75;10.20;;;;;;;;;;4953552;29;20047;-83
2022/05/20 15:14:30;;;;;;;14.23;9.35;;;;;;;;;;4953385;29;20372;-83
2022/05/20 15:16:57;;;;;;;14.88;9.90;;;;;;;;;;4954923;29;20066;-83
2022/05/20 15:19:23;;;;;;;16.10;9.23;;;;;;;;;;4921512;29;20070;-83
2022/05/20 15:21:50;;;;;;;16.63;9.43;;;;;;;;;;4949281;28;20486;-83
2022/05/20 15:24:29;;;;;;;14.52;9.52;;;;;;;;;;4937222;29;20508;-83
2022/05/20 15:26:55;;;;;;;15.07;9.60;;;;;;;;;;4936474;29;20043;-83
2022/05/20 15:29:21;;;;;;;17.55;10.43;;;;;;;;;;4953160;29;20130;-84
2022/05/20 15:37:16;;;;;;;18.40;10.68;;;;;;;;;;4954030;29;20059;-83
2022/05/20 15:39:44;;;;;;;13.57;10.02;;;;;;;;;;4937271;28;20413;-84